createdAt,value
2019-04-20T00:01:19.898Z,15.50
2019-04-20T00:02:23.738Z,15.40
2019-04-20T00:03:32.243Z,15.40
2019-04-20T00:04:35.694Z,15.40
2019-04-20T00:05:41.286Z,15.30
2019-04-20T00:06:49.786Z,15.30
2019-04-20T00:07:52.264Z,15.30
2019-04-20T00:09:03.289Z,15.30
2019-04-20T00:10:08.757Z,15.30
2019-04-20T00:11:17.272Z,15.30
2019-04-20T00:12:20.259Z,15.30
2019-04-20T00:13:30.819Z,15.20
2019-04-20T00:14:29.630Z,15.20
2019-04-20T00:15:32.314Z,15.20
2019-04-20T00:16:37.806Z,15.10
2019-04-20T00:17:50.819Z,15.10
2019-04-20T00:18:52.119Z,15.10
2019-04-20T00:19:57.269Z,15.10
2019-04-20T00:21:18.079Z,15.10
2019-04-20T00:22:47.051Z,15.10
2019-04-20T00:23:51.448Z,15.10
2019-04-20T00:25:18.644Z,15.00
2019-04-20T00:27:01.960Z,15.00
2019-04-20T00:28:15.251Z,15.00
2019-04-20T00:29:22.247Z,14.90
2019-04-20T00:30:36.629Z,14.90
2019-04-20T00:31:29.781Z,14.80
2019-04-20T00:32:35.963Z,14.80
2019-04-20T00:33:41.010Z,14.90
2019-04-20T00:34:35.592Z,14.80
2019-04-20T00:35:37.932Z,14.80
2019-04-20T00:36:43.330Z,14.70
2019-04-20T00:37:48.717Z,14.80
2019-04-20T00:38:56.900Z,14.70
2019-04-20T00:39:59.557Z,14.70
2019-04-20T00:41:07.487Z,14.70
2019-04-20T00:42:13.378Z,14.70
2019-04-20T00:43:22.077Z,14.70
2019-04-20T00:44:27.546Z,14.70
2019-04-20T00:45:31.632Z,14.60
2019-04-20T00:46:41.933Z,14.60
2019-04-20T00:47:48.891Z,14.60
2019-04-20T00:48:53.974Z,14.60
2019-04-20T00:50:05.502Z,14.60
2019-04-20T00:51:17.403Z,14.50
2019-04-20T00:52:31.081Z,14.50
2019-04-20T00:53:17.086Z,14.50
2019-04-20T00:54:15.857Z,14.50
2019-04-20T00:55:20.969Z,14.50
2019-04-20T00:56:26.391Z,14.50
2019-04-20T00:57:41.859Z,14.40
2019-04-20T00:58:50.762Z,14.40
2019-04-20T01:00:04.992Z,14.40
2019-04-20T01:01:07.424Z,14.40
2019-04-20T01:02:13.159Z,14.30
2019-04-20T01:03:15.841Z,14.30
2019-04-20T01:04:25.424Z,14.30
2019-04-20T01:05:49.769Z,14.30
2019-04-20T01:07:01.559Z,14.30
2019-04-20T01:08:11.199Z,14.30
2019-04-20T01:09:20.313Z,14.20
2019-04-20T01:10:28.386Z,14.20
2019-04-20T01:11:36.821Z,14.20
2019-04-20T01:12:38.409Z,14.20
2019-04-20T01:13:49.422Z,14.10
2019-04-20T01:14:53.997Z,14.10
2019-04-20T01:15:59.928Z,14.10
2019-04-20T01:17:10.987Z,14.10
2019-04-20T01:18:05.830Z,14.10
2019-04-20T01:19:10.076Z,14.10
2019-04-20T01:20:14.336Z,14.10
2019-04-20T01:21:22.991Z,14.00
2019-04-20T01:22:27.317Z,14.00
2019-04-20T01:23:38.220Z,14.00
2019-04-20T01:24:40.506Z,14.00
2019-04-20T01:25:45.083Z,14.00
2019-04-20T01:26:50.596Z,14.00
2019-04-20T01:28:10.252Z,14.00
2019-04-20T01:29:13.739Z,14.00
2019-04-20T01:30:18.694Z,13.90
2019-04-20T01:31:25.185Z,13.90
2019-04-20T01:32:31.337Z,13.90
2019-04-20T01:33:37.246Z,13.90
2019-04-20T01:34:41.632Z,13.90
2019-04-20T01:35:53.518Z,13.80
2019-04-20T01:37:01.012Z,13.80
2019-04-20T01:38:09.897Z,13.80
2019-04-20T01:39:09.408Z,13.80
2019-04-20T01:40:04.160Z,13.80
2019-04-20T01:41:07.462Z,13.80
2019-04-20T01:42:12.957Z,13.80
2019-04-20T01:43:18.356Z,13.70
2019-04-20T01:44:26.152Z,13.70
2019-04-20T01:45:34.319Z,13.70
2019-04-20T01:46:38.345Z,13.70
2019-04-20T01:47:46.201Z,13.70
2019-04-20T01:48:46.399Z,13.70
2019-04-20T01:49:57.543Z,13.70
2019-04-20T01:51:06.539Z,13.60
2019-04-20T01:52:12.979Z,13.60
2019-04-20T01:53:16.693Z,13.60
2019-04-20T01:54:31.555Z,13.60
2019-04-20T01:55:43.135Z,13.60
2019-04-20T01:56:43.425Z,13.60
2019-04-20T01:58:00.687Z,13.60
2019-04-20T01:59:30.836Z,13.60
2019-04-20T02:00:40.703Z,13.50
2019-04-20T02:02:09.971Z,13.50
2019-04-20T02:03:36.406Z,13.50
2019-04-20T02:04:58.648Z,13.50
2019-04-20T02:06:06.163Z,13.40
2019-04-20T02:07:08.261Z,13.40
2019-04-20T02:08:17.251Z,13.40
2019-04-20T02:09:21.160Z,13.40
2019-04-20T02:10:33.243Z,13.40
2019-04-20T02:11:36.182Z,13.40
2019-04-20T02:12:39.013Z,13.30
2019-04-20T02:13:47.984Z,13.30
2019-04-20T02:14:52.470Z,13.30
2019-04-20T02:15:57.815Z,13.30
2019-04-20T02:17:12.476Z,13.30
2019-04-20T02:18:20.539Z,13.30
2019-04-20T02:19:26.704Z,13.30
2019-04-20T02:20:39.003Z,13.30
2019-04-20T02:21:38.588Z,13.30
2019-04-20T02:22:46.520Z,13.20
2019-04-20T02:23:44.116Z,13.20
2019-04-20T02:24:40.728Z,13.20
2019-04-20T02:25:45.916Z,13.20
2019-04-20T02:26:51.948Z,13.20
2019-04-20T02:28:14.635Z,13.20
2019-04-20T02:29:29.355Z,13.20
2019-04-20T02:30:41.114Z,13.10
2019-04-20T02:32:02.726Z,13.10
2019-04-20T02:32:59.266Z,13.10
2019-04-20T02:34:03.537Z,13.10
2019-04-20T02:35:36.197Z,13.10
2019-04-20T02:36:55.654Z,13.10
2019-04-20T02:40:46.438Z,13.00
2019-04-20T02:41:45.007Z,13.00
2019-04-20T02:45:17.320Z,12.90
2019-04-20T02:45:57.567Z,12.90
2019-04-20T02:48:14.011Z,12.90
2019-04-20T02:49:29.200Z,12.90
2019-04-20T02:50:30.430Z,12.90
2019-04-20T02:51:42.271Z,12.80
2019-04-20T02:52:56.017Z,12.80
2019-04-20T02:53:54.714Z,12.80
2019-04-20T02:54:55.943Z,12.80
2019-04-20T02:55:55.696Z,12.80
2019-04-20T02:58:07.065Z,12.80
2019-04-20T02:59:43.218Z,12.80
2019-04-20T03:00:12.756Z,12.70
2019-04-20T03:01:41.807Z,12.70
2019-04-20T03:02:38.600Z,12.70
2019-04-20T03:03:39.072Z,12.70
2019-04-20T03:04:47.069Z,12.70
2019-04-20T03:06:01.311Z,12.70
2019-04-20T03:07:06.838Z,12.70
2019-04-20T03:08:15.387Z,12.70
2019-04-20T03:09:29.853Z,12.60
2019-04-20T03:10:34.383Z,12.60
2019-04-20T03:11:42.679Z,12.60
2019-04-20T03:12:47.807Z,12.60
2019-04-20T03:13:41.389Z,12.60
2019-04-20T03:14:47.409Z,12.50
2019-04-20T03:15:57.992Z,12.50
2019-04-20T03:17:08.690Z,12.50
2019-04-20T03:18:12.030Z,12.50
2019-04-20T03:19:14.795Z,12.50
2019-04-20T03:20:25.622Z,12.50
2019-04-20T03:21:33.257Z,12.50
2019-04-20T03:22:51.252Z,12.50
2019-04-20T03:23:52.698Z,12.40
2019-04-20T03:24:54.110Z,12.40
2019-04-20T03:26:05.488Z,12.40
2019-04-20T03:27:06.841Z,12.40
2019-04-20T03:28:18.450Z,12.40
2019-04-20T03:29:52.293Z,12.40
2019-04-20T03:31:37.100Z,12.40
2019-04-20T03:32:56.132Z,12.40
2019-04-20T03:33:53.884Z,12.40
2019-04-20T03:34:55.505Z,12.30
2019-04-20T03:35:43.608Z,12.30
2019-04-20T03:36:53.131Z,12.30
2019-04-20T03:37:52.887Z,12.30
2019-04-20T03:38:53.811Z,12.30
2019-04-20T03:39:56.730Z,12.30
2019-04-20T03:40:59.263Z,12.20
2019-04-20T03:41:55.852Z,12.20
2019-04-20T03:42:59.275Z,12.20
2019-04-20T03:44:09.928Z,12.20
2019-04-20T03:45:14.165Z,12.20
2019-04-20T03:46:19.177Z,12.20
2019-04-20T03:47:30.432Z,12.20
2019-04-20T03:48:41.482Z,12.20
2019-04-20T03:49:54.926Z,12.10
2019-04-20T03:50:57.694Z,12.10
2019-04-20T03:52:24.626Z,12.10
2019-04-20T03:53:30.876Z,12.10
2019-04-20T03:54:36.914Z,12.10
2019-04-20T03:56:10.058Z,12.10
2019-04-20T03:57:31.994Z,12.00
2019-04-20T03:58:44.116Z,12.00
2019-04-20T03:59:56.022Z,12.00
2019-04-20T04:01:05.111Z,12.00
2019-04-20T04:02:52.846Z,12.00
2019-04-20T04:04:07.855Z,12.00
2019-04-20T04:05:08.793Z,11.90
2019-04-20T04:06:11.742Z,11.90
2019-04-20T04:07:15.329Z,11.90
2019-04-20T04:08:19.192Z,11.90
2019-04-20T04:09:25.726Z,11.90
2019-04-20T04:10:31.683Z,11.90
2019-04-20T04:11:46.078Z,11.90
2019-04-20T04:13:19.034Z,11.90
2019-04-20T04:14:24.010Z,11.80
2019-04-20T04:15:29.567Z,11.80
2019-04-20T04:16:42.922Z,11.80
2019-04-20T04:17:45.091Z,11.80
2019-04-20T04:18:59.166Z,11.80
2019-04-20T04:20:03.492Z,11.80
2019-04-20T04:21:07.891Z,11.80
2019-04-20T04:22:18.069Z,11.80
2019-04-20T04:23:32.390Z,11.80
2019-04-20T04:24:29.184Z,11.80
2019-04-20T04:25:34.527Z,11.80
2019-04-20T04:26:47.420Z,11.70
2019-04-20T04:27:54.583Z,11.70
2019-04-20T04:29:00.646Z,11.70
2019-04-20T04:30:08.077Z,11.70
2019-04-20T04:31:12.073Z,11.70
2019-04-20T04:32:33.262Z,11.70
2019-04-20T04:33:46.178Z,11.70
2019-04-20T04:34:30.621Z,11.70
2019-04-20T04:35:31.548Z,11.70
2019-04-20T04:36:46.208Z,11.70
2019-04-20T04:37:52.114Z,11.70
2019-04-20T04:38:57.184Z,11.70
2019-04-20T04:40:10.577Z,11.70
2019-04-20T04:41:13.665Z,11.70
2019-04-20T04:42:19.201Z,11.70
2019-04-20T04:43:22.100Z,11.70
2019-04-20T04:44:22.132Z,11.70
2019-04-20T04:45:14.154Z,11.70
2019-04-20T04:46:16.600Z,11.70
2019-04-20T04:47:21.923Z,11.70
2019-04-20T04:48:33.001Z,11.70
2019-04-20T04:49:38.165Z,11.70
2019-04-20T04:50:48.338Z,11.70
2019-04-20T04:51:53.509Z,11.70
2019-04-20T04:53:00.667Z,11.70
2019-04-20T04:54:05.943Z,11.70
2019-04-20T04:55:12.134Z,11.70
2019-04-20T04:56:14.167Z,11.70
2019-04-20T04:57:13.739Z,11.70
2019-04-20T04:58:19.412Z,11.70
2019-04-20T04:59:23.878Z,11.70
2019-04-20T05:00:31.386Z,11.80
2019-04-20T05:01:36.997Z,11.80
2019-04-20T05:02:45.284Z,11.80
2019-04-20T05:04:11.572Z,11.80
2019-04-20T05:05:48.671Z,11.80
2019-04-20T05:06:52.160Z,11.80
2019-04-20T05:07:52.000Z,11.90
2019-04-20T05:08:51.458Z,11.90
2019-04-20T05:09:52.920Z,11.90
2019-04-20T05:10:58.204Z,11.90
2019-04-20T05:12:08.297Z,11.90
2019-04-20T05:13:09.158Z,11.90
2019-04-20T05:14:21.643Z,12.00
2019-04-20T05:15:36.422Z,12.00
2019-04-20T05:16:46.377Z,12.10
2019-04-20T05:17:53.001Z,12.10
2019-04-20T05:19:13.344Z,12.10
2019-04-20T05:20:02.589Z,12.20
2019-04-20T05:21:21.697Z,12.30
2019-04-20T05:22:34.762Z,12.30
2019-04-20T05:23:49.139Z,12.40
2019-04-20T05:25:09.062Z,12.40
2019-04-20T05:26:45.544Z,12.40
2019-04-20T05:27:54.724Z,12.50
2019-04-20T05:28:54.741Z,12.60
2019-04-20T05:29:50.788Z,12.60
2019-04-20T05:30:59.879Z,12.70
2019-04-20T05:32:08.105Z,12.80
2019-04-20T05:33:11.619Z,12.90
2019-04-20T05:34:34.062Z,13.00
2019-04-20T05:35:36.452Z,13.00
2019-04-20T05:36:46.686Z,13.10
2019-04-20T05:39:05.107Z,13.30
2019-04-20T05:40:07.445Z,13.40
2019-04-20T05:41:08.830Z,13.60
2019-04-20T05:42:19.138Z,13.70
2019-04-20T05:43:43.162Z,13.90
2019-04-20T05:45:07.647Z,14.10
2019-04-20T05:45:51.567Z,14.40
2019-04-20T05:47:09.246Z,14.60
2019-04-20T05:48:09.118Z,14.80
2019-04-20T05:49:20.659Z,15.10
2019-04-20T05:50:23.410Z,15.30
2019-04-20T05:51:29.434Z,15.60
2019-04-20T05:53:39.940Z,16.40
2019-04-20T05:54:44.636Z,16.60
2019-04-20T05:55:51.475Z,16.80
2019-04-20T05:56:56.266Z,16.80
2019-04-20T05:58:10.032Z,16.70
2019-04-20T05:59:07.322Z,16.60
2019-04-20T06:00:16.724Z,16.60
2019-04-20T06:01:20.492Z,16.60
2019-04-20T06:02:27.245Z,17.10
2019-04-20T06:03:33.586Z,18.30
2019-04-20T06:04:58.780Z,19.40
2019-04-20T06:05:52.617Z,20.30
2019-04-20T06:06:49.817Z,21.10
2019-04-20T06:07:53.649Z,22.00
2019-04-20T06:09:05.687Z,22.70
2019-04-20T06:10:13.893Z,23.10
2019-04-20T06:11:19.594Z,23.60
2019-04-20T06:12:20.008Z,24.30
2019-04-20T06:13:37.874Z,24.80
2019-04-20T06:15:12.995Z,25.10
2019-04-20T06:16:46.851Z,25.00
2019-04-20T06:18:17.724Z,24.80
2019-04-20T06:20:33.890Z,24.80
2019-04-20T06:21:52.498Z,24.80
2019-04-20T06:22:51.349Z,24.80
2019-04-20T06:24:02.593Z,24.80
2019-04-20T06:25:39.085Z,24.90
2019-04-20T06:26:44.282Z,25.20
2019-04-20T06:27:40.895Z,25.60
2019-04-20T06:28:37.838Z,25.80
2019-04-20T06:29:46.033Z,25.80
2019-04-20T06:30:48.055Z,25.80
2019-04-20T06:32:07.016Z,25.60
2019-04-20T06:34:01.444Z,25.40
2019-04-20T06:34:46.598Z,25.20
2019-04-20T06:36:07.556Z,25.00
2019-04-20T06:36:57.428Z,25.20
2019-04-20T06:38:10.158Z,25.60
2019-04-20T06:39:16.257Z,26.00
2019-04-20T06:40:37.294Z,26.40
2019-04-20T06:41:37.921Z,26.70
2019-04-20T06:42:21.968Z,26.80
2019-04-20T06:43:40.836Z,26.80
2019-04-20T06:44:57.016Z,26.70
2019-04-20T06:45:51.161Z,26.60
2019-04-20T06:47:57.584Z,26.30
2019-04-20T06:49:11.860Z,26.10
2019-04-20T06:50:08.634Z,26.00
2019-04-20T06:51:23.659Z,25.90
2019-04-20T06:52:30.834Z,26.00
2019-04-20T06:53:46.578Z,26.30
2019-04-20T06:55:11.125Z,26.60
2019-04-20T06:56:23.456Z,26.80
2019-04-20T06:57:25.501Z,27.30
2019-04-20T06:58:43.731Z,27.80
2019-04-20T07:00:42.183Z,28.50
2019-04-20T07:01:56.796Z,28.60
2019-04-20T07:02:53.977Z,28.50
2019-04-20T07:04:22.425Z,28.40
2019-04-20T07:06:29.391Z,28.80
2019-04-20T07:07:18.483Z,29.10
2019-04-20T07:08:40.893Z,29.30
2019-04-20T07:09:43.074Z,29.30
2019-04-20T07:10:38.028Z,29.10
2019-04-20T07:11:43.979Z,29.00
2019-04-20T07:12:46.713Z,28.80
2019-04-20T07:13:45.883Z,28.50
2019-04-20T07:14:50.945Z,28.20
2019-04-20T07:16:13.475Z,28.10
2019-04-20T07:19:00.999Z,28.40
2019-04-20T07:20:10.314Z,28.80
2019-04-20T07:21:37.792Z,28.60
2019-04-20T07:22:55.944Z,28.40
2019-04-20T07:24:03.214Z,28.60
2019-04-20T07:25:19.903Z,28.90
2019-04-20T07:26:16.791Z,28.90
2019-04-20T07:27:17.833Z,28.80
2019-04-20T07:28:29.160Z,28.80
2019-04-20T07:29:33.362Z,28.70
2019-04-20T07:30:35.118Z,28.80
2019-04-20T07:31:40.277Z,28.80
2019-04-20T07:32:52.489Z,28.80
2019-04-20T07:33:53.827Z,29.00
2019-04-20T07:34:57.127Z,29.30
2019-04-20T07:36:04.189Z,29.70
2019-04-20T07:37:41.973Z,30.00
2019-04-20T07:39:28.104Z,31.10
2019-04-20T07:40:28.791Z,31.50
2019-04-20T07:42:00.121Z,31.80
2019-04-20T07:42:46.818Z,31.90
2019-04-20T07:44:03.526Z,32.20
2019-04-20T07:45:01.575Z,32.40
2019-04-20T07:46:34.877Z,32.40
2019-04-20T07:47:13.840Z,32.30
2019-04-20T07:48:15.216Z,32.10
2019-04-20T07:49:18.148Z,32.10
2019-04-20T07:50:22.858Z,32.20
2019-04-20T07:51:18.249Z,32.30
2019-04-20T07:52:31.888Z,32.30
2019-04-20T07:53:36.259Z,32.30
2019-04-20T07:55:13.657Z,32.60
2019-04-20T07:56:12.883Z,33.00
2019-04-20T07:56:58.659Z,32.90
2019-04-20T07:58:01.428Z,32.60
2019-04-20T07:59:09.003Z,32.40
2019-04-20T08:00:26.125Z,32.40
2019-04-20T08:01:38.838Z,32.40
2019-04-20T08:02:57.458Z,32.70
2019-04-20T08:04:09.324Z,33.20
2019-04-20T08:05:11.026Z,33.60
2019-04-20T08:06:19.310Z,33.90
2019-04-20T08:07:18.798Z,34.20
2019-04-20T08:08:37.690Z,34.40
2019-04-20T08:09:37.922Z,34.40
2019-04-20T08:10:51.548Z,34.50
2019-04-20T08:12:02.437Z,34.70
2019-04-20T08:13:13.300Z,34.80
2019-04-20T08:14:19.288Z,35.30
2019-04-20T08:15:32.757Z,35.50
2019-04-20T08:16:30.977Z,35.60
2019-04-20T08:17:40.415Z,35.40
2019-04-20T08:18:45.781Z,35.40
2019-04-20T08:19:39.718Z,35.70
2019-04-20T08:20:46.277Z,35.90
2019-04-20T08:21:52.926Z,35.90
2019-04-20T08:22:58.626Z,36.10
2019-04-20T08:24:03.893Z,36.70
2019-04-20T08:25:05.515Z,37.30
2019-04-20T08:26:07.881Z,37.80
2019-04-20T08:27:11.431Z,38.40
2019-04-20T08:28:27.380Z,38.10
2019-04-20T08:29:47.496Z,37.80
2019-04-20T08:31:13.857Z,37.80
2019-04-20T08:32:38.736Z,38.20
2019-04-20T08:33:54.947Z,37.70
2019-04-20T08:34:59.194Z,38.00
2019-04-20T08:36:04.431Z,38.50
2019-04-20T08:37:06.004Z,38.90
2019-04-20T08:38:36.986Z,39.40
2019-04-20T08:39:30.793Z,39.90
2019-04-20T08:40:29.978Z,40.50
2019-04-20T08:41:25.107Z,41.00
2019-04-20T08:42:50.158Z,41.40
2019-04-20T08:43:57.432Z,41.70
2019-04-20T08:45:12.724Z,42.00
2019-04-20T08:45:58.683Z,42.40
2019-04-20T08:47:10.462Z,42.70
2019-04-20T08:48:19.174Z,42.70
2019-04-20T08:49:22.197Z,41.80
2019-04-20T08:50:22.526Z,41.40
2019-04-20T08:51:33.076Z,41.10
2019-04-20T08:52:55.645Z,40.90
2019-04-20T08:53:43.145Z,41.00
2019-04-20T08:54:39.882Z,40.90
2019-04-20T08:55:47.704Z,40.80
2019-04-20T08:56:46.104Z,40.80
2019-04-20T08:57:44.457Z,41.20
2019-04-20T08:58:48.738Z,41.80
2019-04-20T08:59:54.281Z,42.30
2019-04-20T09:01:03.344Z,42.70
2019-04-20T09:02:09.859Z,43.30
2019-04-20T09:03:18.133Z,43.70
2019-04-20T09:04:24.142Z,44.20
2019-04-20T09:05:34.973Z,44.70
2019-04-20T09:06:40.016Z,45.10
2019-04-20T09:07:47.662Z,45.20
2019-04-20T09:08:52.314Z,45.50
2019-04-20T09:10:12.403Z,45.50
2019-04-20T09:11:09.994Z,45.50
2019-04-20T09:12:17.915Z,45.80
2019-04-20T09:13:18.033Z,46.00
2019-04-20T09:14:21.306Z,45.30
2019-04-20T09:15:25.985Z,44.50
2019-04-20T09:16:38.887Z,44.00
2019-04-20T09:17:47.434Z,43.90
2019-04-20T09:18:56.933Z,43.80
2019-04-20T09:20:00.003Z,44.00
2019-04-20T09:21:07.736Z,44.60
2019-04-20T09:22:34.238Z,44.60
2019-04-20T09:23:45.453Z,44.60
2019-04-20T09:25:04.189Z,45.00
2019-04-20T09:26:15.043Z,45.40
2019-04-20T09:27:04.775Z,45.90
2019-04-20T09:28:22.431Z,46.40
2019-04-20T09:29:32.906Z,46.70
2019-04-20T09:30:39.543Z,46.50
2019-04-20T09:31:48.096Z,46.30
2019-04-20T09:33:09.288Z,46.20
2019-04-20T09:34:25.961Z,46.00
2019-04-20T09:35:40.855Z,46.10
2019-04-20T09:37:04.556Z,45.60
2019-04-20T09:38:10.185Z,45.40
2019-04-20T09:39:35.756Z,45.30
2019-04-20T09:40:51.103Z,45.80
2019-04-20T09:42:00.640Z,44.60
2019-04-20T09:43:08.789Z,43.50
2019-04-20T09:44:13.394Z,43.00
2019-04-20T09:45:28.749Z,42.50
2019-04-20T09:46:26.415Z,42.40
2019-04-20T09:47:36.990Z,42.40
2019-04-20T09:48:44.055Z,42.40
2019-04-20T09:49:54.874Z,42.00
2019-04-20T09:51:09.145Z,41.80
2019-04-20T09:52:06.808Z,41.60
2019-04-20T09:53:14.211Z,41.10
2019-04-20T09:54:25.790Z,41.30
2019-04-20T09:55:26.783Z,41.60
2019-04-20T09:56:34.587Z,41.20
2019-04-20T09:57:48.547Z,41.40
2019-04-20T09:58:53.397Z,42.00
2019-04-20T09:59:53.706Z,42.80
2019-04-20T10:00:58.212Z,43.70
2019-04-20T10:01:59.825Z,43.90
2019-04-20T10:02:55.464Z,44.30
2019-04-20T10:03:59.699Z,44.20
2019-04-20T10:05:05.310Z,44.30
2019-04-20T10:06:09.765Z,44.20
2019-04-20T10:07:17.968Z,43.80
2019-04-20T10:08:19.891Z,43.80
2019-04-20T10:09:30.575Z,43.70
2019-04-20T10:10:38.021Z,43.80
2019-04-20T10:11:37.292Z,43.90
2019-04-20T10:12:41.955Z,44.20
2019-04-20T10:13:46.131Z,43.90
2019-04-20T10:14:50.969Z,43.80
2019-04-20T10:15:55.566Z,44.10
2019-04-20T10:17:00.113Z,44.30
2019-04-20T10:18:05.742Z,44.30
2019-04-20T10:19:11.780Z,44.40
2019-04-20T10:20:24.356Z,44.10
2019-04-20T10:21:21.760Z,43.70
2019-04-20T10:22:26.808Z,44.00
2019-04-20T10:23:32.380Z,43.70
2019-04-20T10:24:36.969Z,43.60
2019-04-20T10:25:42.507Z,43.70
2019-04-20T10:26:48.027Z,44.00
2019-04-20T10:27:53.551Z,44.60
2019-04-20T10:28:59.181Z,44.80
2019-04-20T10:30:05.686Z,44.40
2019-04-20T10:31:10.671Z,44.50
2019-04-20T10:32:16.043Z,44.50
2019-04-20T10:33:21.719Z,44.20
2019-04-20T10:34:26.421Z,44.30
2019-04-20T10:35:31.750Z,44.50
2019-04-20T10:37:05.805Z,44.50
2019-04-20T10:38:23.294Z,45.00
2019-04-20T10:39:28.745Z,45.30
2019-04-20T10:40:46.345Z,45.20
2019-04-20T10:41:46.956Z,44.60
2019-04-20T10:42:46.081Z,44.40
2019-04-20T10:43:51.086Z,44.50
2019-04-20T10:44:58.542Z,44.10
2019-04-20T10:46:02.612Z,43.90
2019-04-20T10:47:07.245Z,44.10
2019-04-20T10:48:13.043Z,44.60
2019-04-20T10:49:17.590Z,44.80
2019-04-20T10:50:22.984Z,44.10
2019-04-20T10:51:27.249Z,43.90
2019-04-20T10:52:32.032Z,44.20
2019-04-20T10:53:36.675Z,44.60
2019-04-20T10:54:41.048Z,45.00
2019-04-20T10:55:45.361Z,45.40
2019-04-20T10:56:49.820Z,45.70
2019-04-20T10:57:55.484Z,45.80
2019-04-20T10:59:01.318Z,44.80
2019-04-20T11:00:06.013Z,44.60
2019-04-20T11:01:11.445Z,44.90
2019-04-20T11:02:16.054Z,45.30
2019-04-20T11:03:20.432Z,45.60
2019-04-20T11:04:26.328Z,45.90
2019-04-20T11:05:30.717Z,45.90
2019-04-20T11:06:36.409Z,45.00
2019-04-20T11:07:40.892Z,45.00
2019-04-20T11:08:46.556Z,44.90
2019-04-20T11:10:02.298Z,44.80
2019-04-20T11:11:07.329Z,45.10
2019-04-20T11:12:04.094Z,45.60
2019-04-20T11:13:09.603Z,45.80
2019-04-20T11:14:22.789Z,45.00
2019-04-20T11:15:20.900Z,44.50
2019-04-20T11:16:26.411Z,44.40
2019-04-20T11:17:31.779Z,44.80
2019-04-20T11:18:37.700Z,45.10
2019-04-20T11:19:43.273Z,45.40
2019-04-20T11:20:48.885Z,45.90
2019-04-20T11:21:54.334Z,45.80
2019-04-20T11:23:00.152Z,45.80
2019-04-20T11:24:04.631Z,46.00
2019-04-20T11:25:10.246Z,46.00
2019-04-20T11:26:16.067Z,46.10
2019-04-20T11:27:20.530Z,45.70
2019-04-20T11:28:25.950Z,45.90
2019-04-20T11:29:31.783Z,45.80
2019-04-20T11:30:36.286Z,45.60
2019-04-20T11:31:46.496Z,45.50
2019-04-20T11:32:46.466Z,45.40
2019-04-20T11:33:52.174Z,45.50
2019-04-20T11:34:56.742Z,45.50
2019-04-20T11:36:01.150Z,44.80
2019-04-20T11:37:06.859Z,44.60
2019-04-20T11:38:13.762Z,44.80
2019-04-20T11:39:17.096Z,45.00
2019-04-20T11:40:21.335Z,45.30
2019-04-20T11:41:29.076Z,45.00
2019-04-20T11:42:31.959Z,44.80
2019-04-20T11:43:37.634Z,44.70
2019-04-20T11:44:42.443Z,44.10
2019-04-20T11:45:46.920Z,43.80
2019-04-20T11:46:52.485Z,43.80
2019-04-20T11:47:57.822Z,43.80
2019-04-20T11:49:03.573Z,43.80
2019-04-20T11:50:09.347Z,43.60
2019-04-20T11:51:13.853Z,43.90
2019-04-20T11:52:20.279Z,43.70
2019-04-20T11:53:26.604Z,43.50
2019-04-20T11:54:30.451Z,43.00
2019-04-20T11:55:36.158Z,42.90
2019-04-20T11:56:43.864Z,43.00
2019-04-20T11:57:47.156Z,42.70
2019-04-20T11:58:51.477Z,42.80
2019-04-20T11:59:57.077Z,43.00
2019-04-20T12:01:13.091Z,43.30
2019-04-20T12:02:25.301Z,43.60
2019-04-20T12:03:34.243Z,43.60
2019-04-20T12:05:11.580Z,43.00
2019-04-20T12:06:01.651Z,42.80
2019-04-20T12:07:06.818Z,43.10
2019-04-20T12:08:11.247Z,43.20
2019-04-20T12:09:16.951Z,43.30
2019-04-20T12:10:23.983Z,43.30
2019-04-20T12:11:37.116Z,43.10
2019-04-20T12:12:41.305Z,42.50
2019-04-20T12:13:39.058Z,41.90
2019-04-20T12:14:43.301Z,41.50
2019-04-20T12:15:47.737Z,41.50
2019-04-20T12:16:53.297Z,41.60
2019-04-20T12:17:57.852Z,41.50
2019-04-20T12:19:02.278Z,41.60
2019-04-20T12:20:08.078Z,41.60
2019-04-20T12:21:12.758Z,41.50
2019-04-20T12:22:17.985Z,41.30
2019-04-20T12:23:22.444Z,41.10
2019-04-20T12:24:26.921Z,41.20
2019-04-20T12:25:34.184Z,40.70
2019-04-20T12:26:38.528Z,40.40
2019-04-20T12:27:49.709Z,39.80
2019-04-20T12:28:49.682Z,38.90
2019-04-20T12:29:54.070Z,38.50
2019-04-20T12:31:06.393Z,38.00
2019-04-20T12:32:05.910Z,37.60
2019-04-20T12:33:11.393Z,37.00
2019-04-20T12:34:16.150Z,36.60
2019-04-20T12:35:20.485Z,36.20
2019-04-20T12:36:25.969Z,36.10
2019-04-20T12:37:31.315Z,35.90
2019-04-20T12:38:36.966Z,35.90
2019-04-20T12:39:41.341Z,35.70
2019-04-20T12:40:46.164Z,35.60
2019-04-20T12:41:56.506Z,35.40
2019-04-20T12:42:57.215Z,35.20
2019-04-20T12:44:01.772Z,34.70
2019-04-20T12:45:07.960Z,34.30
2019-04-20T12:46:15.406Z,34.10
2019-04-20T12:47:19.525Z,34.10
2019-04-20T12:48:23.934Z,34.10
2019-04-20T12:49:29.512Z,33.60
2019-04-20T12:50:35.218Z,33.40
2019-04-20T12:51:47.804Z,33.40
2019-04-20T12:52:46.210Z,33.40
2019-04-20T12:53:50.813Z,33.30
2019-04-20T12:54:56.568Z,33.30
2019-04-20T12:56:02.311Z,33.10
2019-04-20T12:57:06.779Z,32.90
2019-04-20T12:58:12.507Z,32.60
2019-04-20T12:59:17.917Z,32.70
2019-04-20T13:00:23.554Z,32.50
2019-04-20T13:01:28.086Z,32.30
2019-04-20T13:02:33.485Z,32.40
2019-04-20T13:03:37.787Z,32.30
2019-04-20T13:04:42.016Z,32.30
2019-04-20T13:05:46.275Z,32.20
2019-04-20T13:06:54.827Z,31.90
2019-04-20T13:07:59.405Z,31.90
2019-04-20T13:09:04.367Z,31.70
2019-04-20T13:10:09.834Z,31.60
2019-04-20T13:11:22.550Z,31.60
2019-04-20T13:12:42.465Z,31.50
2019-04-20T13:14:12.476Z,31.30
2019-04-20T13:15:56.287Z,31.40
2019-04-20T13:17:01.999Z,31.50
2019-04-20T13:18:07.457Z,31.40
2019-04-20T13:19:13.059Z,31.40
2019-04-20T13:20:18.283Z,31.30
2019-04-20T13:21:22.996Z,31.30
2019-04-20T13:22:27.485Z,31.00
2019-04-20T13:23:33.146Z,30.90
2019-04-20T13:24:38.989Z,30.90
2019-04-20T13:25:43.382Z,30.90
2019-04-20T13:26:48.963Z,30.90
2019-04-20T13:27:54.691Z,30.90
2019-04-20T13:28:59.222Z,30.90
2019-04-20T13:30:04.853Z,30.90
2019-04-20T13:31:09.412Z,31.00
2019-04-20T13:32:13.894Z,31.10
2019-04-20T13:33:18.175Z,31.10
2019-04-20T13:34:22.795Z,31.10
2019-04-20T13:35:28.176Z,31.10
2019-04-20T13:36:32.615Z,31.10
2019-04-20T13:37:39.699Z,31.10
2019-04-20T13:38:43.974Z,31.00
2019-04-20T13:39:49.021Z,31.00
2019-04-20T13:40:53.633Z,30.90
2019-04-20T13:42:08.707Z,30.90
2019-04-20T13:43:03.847Z,30.90
2019-04-20T13:44:08.408Z,30.80
2019-04-20T13:45:12.970Z,30.60
2019-04-20T13:46:18.703Z,30.30
2019-04-20T13:47:23.209Z,30.00
2019-04-20T13:48:28.772Z,30.00
2019-04-20T13:49:33.213Z,30.00
2019-04-20T13:50:38.199Z,30.00
2019-04-20T13:51:42.603Z,30.00
2019-04-20T13:52:46.949Z,30.00
2019-04-20T13:53:51.299Z,30.00
2019-04-20T13:54:55.922Z,29.70
2019-04-20T13:56:01.406Z,29.50
2019-04-20T13:57:06.508Z,29.50
2019-04-20T13:58:29.976Z,29.50
2019-04-20T13:59:44.067Z,29.60
2019-04-20T14:00:59.246Z,29.50
2019-04-20T14:02:15.093Z,29.40
2019-04-20T14:03:20.608Z,29.30
2019-04-20T14:04:31.014Z,29.30
2019-04-20T14:05:35.244Z,29.20
2019-04-20T14:06:39.589Z,29.10
2019-04-20T14:07:44.974Z,28.90
2019-04-20T14:08:49.498Z,28.80
2019-04-20T14:09:53.715Z,28.80
2019-04-20T14:10:57.944Z,28.80
2019-04-20T14:12:14.195Z,28.80
2019-04-20T14:13:13.658Z,28.80
2019-04-20T14:14:15.182Z,28.70
2019-04-20T14:15:19.494Z,28.70
2019-04-20T14:16:25.033Z,28.60
2019-04-20T14:17:30.593Z,28.60
2019-04-20T14:18:35.380Z,28.50
2019-04-20T14:19:41.038Z,28.50
2019-04-20T14:20:45.368Z,28.40
2019-04-20T14:21:50.200Z,28.30
2019-04-20T14:22:54.770Z,28.40
2019-04-20T14:23:59.128Z,28.40
2019-04-20T14:25:04.750Z,28.50
2019-04-20T14:26:09.291Z,28.50
2019-04-20T14:27:14.887Z,28.50
2019-04-20T14:28:19.291Z,28.50
2019-04-20T14:29:25.091Z,28.50
2019-04-20T14:30:29.596Z,28.40
2019-04-20T14:31:35.170Z,28.40
2019-04-20T14:32:40.838Z,28.30
2019-04-20T14:33:46.633Z,28.30
2019-04-20T14:34:51.243Z,28.20
2019-04-20T14:35:56.883Z,28.20
2019-04-20T14:37:02.286Z,28.20
2019-04-20T14:38:07.913Z,28.00
2019-04-20T14:39:12.292Z,27.80
2019-04-20T14:40:18.590Z,27.80
2019-04-20T14:41:24.233Z,27.90
2019-04-20T14:42:41.926Z,27.80
2019-04-20T14:43:38.584Z,27.70
2019-04-20T14:44:43.710Z,27.70
2019-04-20T14:45:48.000Z,27.70